Time;durP1;ratioP1;P1;durP2;ratioP2;P2;SDS_P1;SDS_P2;PMS_P1;PMS_P2;Temp;Humidity;BMP_temperature;BMP_pressure;BME280_temperature;BME280_humidity;BME280_pressure;Samples;Min_cycle;Max_cycle;Signal;HPM_P1;HPM_P2
2022/10/31 00:00:58;;;;;;;33.90;21.38;;;;;;;;;;5072381;28;20421;-77
2022/10/31 00:03:26;;;;;;;36.42;22.30;;;;;;;;;;5071575;28;20504;-77
2022/10/31 00:05:52;;;;;;;36.45;21.15;;;;;;;;;;5056430;28;20426;-77
2022/10/31 00:08:19;;;;;;;35.95;21.58;;;;;;;;;;5055632;28;20505;-77
2022/10/31 00:10:45;;;;;;;33.60;21.00;;;12.80;99.90;;;;;;5055839;28;20426;-77
2022/10/31 00:13:12;;;;;;;34.45;21.05;;;;;;;;;;5072278;28;20481;-77
2022/10/31 00:15:39;;;;;;;36.15;20.63;;;;;;;;;;5071732;28;20429;-77
2022/10/31 00:18:06;;;;;;;35.87;21.30;;;;;;;;;;5073092;28;20552;-76
2022/10/31 00:20:32;;;;;;;33.90;21.00;;;;;;;;;;5072252;28;20483;-77
2022/10/31 00:22:59;;;;;;;33.88;20.08;;;;;;;;;;5055416;28;20906;-76
2022/10/31 00:25:26;;;;;;;35.50;20.17;;;12.70;99.90;;;;;;5089533;28;20474;-77
2022/10/31 00:27:52;;;;;;;32.72;20.17;;;;;;;;;;5055554;28;20509;-78
2022/10/31 00:30:18;;;;;;;33.90;19.90;;;;;;;;;;5070707;28;20444;-77
2022/10/31 00:32:45;;;;;;;34.40;19.92;;;;;;;;;;5082355;28;20405;-77
2022/10/31 00:35:10;;;;;;;34.63;20.40;;;12.90;99.90;;;;;;5054683;28;20424;-77
2022/10/31 00:37:36;;;;;;;34.30;19.83;;;12.60;99.90;;;;;;5023934;28;20475;-78
2022/10/31 00:40:02;;;;;;;31.38;19.40;;;;;;;;;;5079234;28;20467;-77
2022/10/31 00:42:28;;;;;;;33.80;18.88;;;;;;;;;;5058430;28;20422;-77
2022/10/31 00:44:54;;;;;;;31.17;18.67;;;;;;;;;;5038652;28;20928;-77
2022/10/31 00:47:20;;;;;;;32.58;18.08;;;;;;;;;;5072030;28;20426;-77
2022/10/31 00:49:46;;;;;;;32.00;17.65;;;;;;;;;;5072636;28;20420;-76
2022/10/31 00:52:12;;;;;;;30.77;18.50;;;;;;;;;;5054886;28;20425;-77
2022/10/31 00:54:38;;;;;;;29.33;17.15;;;;;;;;;;5072213;28;20413;-78
2022/10/31 00:57:04;;;;;;;24.87;15.33;;;;;;;;;;5056419;28;20475;-77
2022/10/31 00:59:30;;;;;;;23.98;14.70;;;;;;;;;;5084498;28;20424;-77
2022/10/31 01:01:57;;;;;;;24.25;13.90;;;;;;;;;;5055812;28;20770;-78
2022/10/31 01:04:23;;;;;;;23.85;13.73;;;;;;;;;;5071845;28;20425;-77
2022/10/31 01:06:49;;;;;;;23.38;14.05;;;;;;;;;;5040224;28;20405;-78
2022/10/31 01:09:14;;;;;;;21.15;13.98;;;12.90;99.90;;;;;;5039524;28;20406;-77
2022/10/31 01:11:40;;;;;;;22.40;14.32;;;;;;;;;;5057039;28;20421;-77
2022/10/31 01:14:07;;;;;;;27.55;15.27;;;;;;;;;;5073008;28;20476;-77
2022/10/31 01:16:32;;;;;;;24.88;14.30;;;12.80;99.90;;;;;;5058826;28;20418;-77
2022/10/31 01:18:58;;;;;;;23.93;14.73;;;;;;;;;;5059117;28;20425;-77
2022/10/31 01:21:26;;;;;;;25.92;15.38;;;;;;;;;;5075605;28;20421;-77
2022/10/31 01:23:54;;;;;;;25.75;15.10;;;;;;;;;;5076183;28;20478;-76
2022/10/31 01:26:22;;;;;;;27.75;15.52;;;;;;;;;;5058370;28;20835;-77
2022/10/31 01:28:57;;;;;;;24.50;15.25;;;12.40;99.90;;;;;;5076732;28;20425;-76
2022/10/31 01:31:29;;;;;;;27.17;16.55;;;12.80;99.90;;;;;;5075013;28;20428;-77
2022/10/31 01:33:55;;;;;;;24.38;15.10;;;12.90;99.90;;;;;;5075656;28;20425;-77
2022/10/31 01:36:26;;;;;;;25.05;15.80;;;;;;;;;;5074172;28;20414;-77
2022/10/31 01:38:53;;;;;;;24.50;16.00;;;;;;;;;;5076150;28;20406;-78
2022/10/31 01:41:20;;;;;;;26.70;15.23;;;;;;;;;;5058124;28;20913;-77
2022/10/31 01:43:48;;;;;;;27.60;16.23;;;;;;;;;;5059127;28;20512;-76
2022/10/31 01:46:18;;;;;;;26.63;15.90;;;12.50;99.90;;;;;;5075454;28;20770;-76
2022/10/31 01:48:44;;;;;;;28.25;16.75;;;;;;;;;;5091663;28;20504;-76
2022/10/31 01:51:12;;;;;;;27.08;17.15;;;;;;;;;;5073187;28;20417;-77
2022/10/31 01:53:39;;;;;;;28.27;17.40;;;12.30;99.90;;;;;;5080279;28;20418;-76
2022/10/31 01:56:06;;;;;;;27.00;17.60;;;12.50;99.90;;;;;;5065686;28;20428;-76
2022/10/31 01:58:32;;;;;;;27.83;17.50;;;;;;;;;;5058953;28;20414;-77
2022/10/31 02:01:00;;;;;;;28.00;18.15;;;;;;;;;;5074287;28;20426;-78
2022/10/31 02:03:26;;;;;;;30.67;18.38;;;;;;;;;;5058247;28;20506;-76
2022/10/31 02:05:54;;;;;;;29.60;18.05;;;;;;;;;;5057295;28;20423;-76
2022/10/31 02:08:32;;;;;;;29.38;18.17;;;12.40;99.90;;;;;;5090996;28;20414;-77
2022/10/31 02:10:59;;;;;;;28.45;18.10;;;12.30;99.90;;;;;;5056691;28;20564;-77
2022/10/31 02:13:26;;;;;;;30.60;19.03;;;;;;;;;;5090540;28;20414;-77
2022/10/31 02:15:55;;;;;;;29.30;18.52;;;12.40;99.90;;;;;;5074624;28;20417;-76
2022/10/31 02:18:22;;;;;;;29.70;18.40;;;;;;;;;;5092460;28;20410;-76
2022/10/31 02:21:07;;;;;;;32.72;19.55;;;;;;;;;;5055640;28;20936;-77
2022/10/31 02:23:39;;;;;;;31.25;19.27;;;;;;;;;;5049018;28;20422;-77
2022/10/31 02:26:30;;;;;;;30.50;19.30;;;12.20;99.90;;;;;;5073144;28;20428;-77
2022/10/31 02:29:05;;;;;;;31.27;19.13;;;12.00;99.90;;;;;;5057918;28;20421;-78
2022/10/31 02:31:34;;;;;;;32.50;19.90;;;;;;;;;;5073297;28;20418;-76
2022/10/31 02:34:32;;;;;;;29.33;18.73;;;12.10;99.90;;;;;;5074119;28;20430;-76
2022/10/31 02:37:04;;;;;;;31.35;18.30;;;12.00;99.90;;;;;;5074293;28;20413;-78
2022/10/31 02:39:49;;;;;;;31.00;19.17;;;;;;;;;;5058680;28;20414;-76
2022/10/31 02:42:25;;;;;;;28.95;18.45;;;;;;;;;;5077563;28;20428;-77
2022/10/31 02:45:00;;;;;;;30.92;19.15;;;;;;;;;;5067441;28;20426;-76
2022/10/31 02:47:32;;;;;;;34.67;18.97;;;;;;;;;;5072563;28;20471;-76
2022/10/31 02:50:22;;;;;;;30.50;18.67;;;;;;;;;;5073981;28;20434;-76
2022/10/31 02:52:52;;;;;;;30.55;18.63;;;11.70;99.90;;;;;;5071559;28;20832;-76
2022/10/31 02:55:24;;;;;;;29.30;18.25;;;;;;;;;;5074315;28;20421;-77
2022/10/31 02:58:04;;;;;;;37.60;18.13;;;12.00;99.90;;;;;;5056511;28;20410;-77
2022/10/31 03:00:59;;;;;;;30.00;17.98;;;11.80;99.90;;;;;;5074111;28;20471;-77
2022/10/31 03:03:25;;;;;;;30.25;18.20;;;;;;;;;;5072050;28;20421;-77
2022/10/31 03:06:14;;;;;;;30.75;19.13;;;11.80;99.90;;;;;;5058283;28;20905;-77
2022/10/31 03:09:18;;;;;;;30.08;18.40;;;12.00;99.90;;;;;;5056874;28;20460;-76
2022/10/31 03:11:58;;;;;;;27.88;17.85;;;;;;;;;;4989156;28;20552;-78
2022/10/31 03:14:43;;;;;;;28.48;18.50;;;11.30;99.90;;;;;;4988926;28;20832;-77
2022/10/31 03:17:35;;;;;;;30.63;19.47;;;11.50;99.90;;;;;;5029941;28;20429;-76
2022/10/31 03:20:04;;;;;;;32.20;20.30;;;;;;;;;;5073464;28;20465;-76
2022/10/31 03:22:31;;;;;;;34.42;21.88;;;;;;;;;;5069740;28;20493;-76
2022/10/31 03:24:58;;;;;;;37.38;22.33;;;;;;;;;;5072801;28;20437;-76
2022/10/31 03:27:26;;;;;;;37.50;22.65;;;;;;;;;;5072698;28;20979;-77
2022/10/31 03:29:55;;;;;;;39.07;23.07;;;;;;;;;;5074259;28;20438;-76
2022/10/31 03:32:36;;;;;;;36.53;22.13;;;;;;;;;;5055701;28;20450;-76
2022/10/31 03:35:04;;;;;;;37.45;23.23;;;;;;;;;;5055112;28;20479;-77
2022/10/31 03:37:32;;;;;;;39.63;23.35;;;;;;;;;;5054025;28;20422;-77
2022/10/31 03:40:00;;;;;;;39.60;22.98;;;;;;;;;;5056863;28;20897;-77
2022/10/31 03:42:28;;;;;;;40.72;23.70;;;;;;;;;;5072462;28;20418;-78
2022/10/31 03:44:57;;;;;;;40.17;24.95;;;;;;;;;;5072182;28;20438;-77
2022/10/31 03:47:23;;;;;;;35.50;23.00;;;;;;;;;;5054539;28;20427;-77
2022/10/31 03:49:49;;;;;;;39.23;23.77;;;11.40;99.90;;;;;;5074291;28;20974;-78
2022/10/31 03:52:15;;;;;;;39.03;24.00;;;;;;;;;;5056277;28;20417;-77
2022/10/31 03:54:41;;;;;;;37.20;22.90;;;;;;;;;;5071757;28;20483;-77
2022/10/31 03:57:20;;;;;;;35.97;22.58;;;;;;;;;;5073250;28;20413;-76
2022/10/31 04:00:05;;;;;;;34.03;22.92;;;11.00;99.90;;;;;;5055975;28;20928;-77
2022/10/31 04:02:32;;;;;;;35.57;22.73;;;;;;;;;;5072638;28;20429;-77
2022/10/31 04:05:00;;;;;;;35.63;21.02;;;10.80;99.90;;;;;;5074468;28;20766;-76
2022/10/31 04:07:28;;;;;;;35.25;22.75;;;;;;;;;;5057014;28;20421;-76
2022/10/31 04:09:55;;;;;;;34.20;22.13;;;;;;;;;;5053731;28;20835;-76
2022/10/31 04:12:23;;;;;;;35.17;22.02;;;;;;;;;;5071784;28;20794;-76
2022/10/31 04:14:50;;;;;;;36.10;24.10;;;11.20;99.90;;;;;;5055706;28;20432;-76
2022/10/31 04:17:20;;;;;;;39.47;23.40;;;11.30;99.90;;;;;;5090545;28;20437;-76
2022/10/31 04:19:46;;;;;;;35.92;24.15;;;;;;;;;;5075737;28;20420;-76
2022/10/31 04:22:12;;;;;;;35.30;23.48;;;;;;;;;;5063374;28;20418;-77
2022/10/31 04:24:40;;;;;;;33.95;23.08;;;10.60;99.90;;;;;;5071841;28;20479;-77
2022/10/31 04:27:06;;;;;;;37.75;24.23;;;;;;;;;;5056116;28;20422;-76
2022/10/31 04:29:32;;;;;;;42.95;24.73;;;;;;;;;;5071746;28;20418;-76
2022/10/31 04:31:58;;;;;;;40.90;25.88;;;;;;;;;;5056095;28;20762;-76
2022/10/31 04:34:24;;;;;;;43.33;25.92;;;;;;;;;;5055012;28;20418;-76
2022/10/31 04:36:50;;;;;;;41.63;26.42;;;;;;;;;;5056108;28;20485;-76
2022/10/31 04:39:16;;;;;;;42.90;26.00;;;;;;;;;;5067114;28;20944;-77
2022/10/31 04:41:42;;;;;;;39.67;25.13;;;;;;;;;;5055097;28;20472;-76
2022/10/31 04:44:08;;;;;;;38.72;24.90;;;;;;;;;;5071709;28;20428;-76
2022/10/31 04:46:34;;;;;;;33.85;23.27;;;;;;;;;;5056186;28;20774;-78
2022/10/31 04:49:01;;;;;;;33.43;22.63;;;;;;;;;;5071733;28;20916;-78
2022/10/31 04:51:27;;;;;;;31.67;22.20;;;;;;;;;;5076257;28;20479;-77
2022/10/31 04:53:53;;;;;;;41.80;25.67;;;;;;;;;;5058854;28;20606;-78
2022/10/31 04:56:19;;;;;;;40.53;26.55;;;;;;;;;;5061096;28;20413;-77
2022/10/31 04:58:45;;;;;;;39.63;25.27;;;;;;;;;;5074219;28;20421;-77
2022/10/31 05:01:11;;;;;;;43.60;26.37;;;;;;;;;;5060313;28;20406;-77
2022/10/31 05:03:39;;;;;;;40.80;26.10;;;;;;;;;;5076343;28;20445;-77
2022/10/31 05:06:05;;;;;;;43.07;25.43;;;10.50;99.90;;;;;;5075829;28;20417;-77
2022/10/31 05:08:32;;;;;;;38.53;25.20;;;;;;;;;;5043585;28;20770;-77
2022/10/31 05:11:02;;;;;;;40.25;25.08;;;10.40;99.90;;;;;;5056776;28;20441;-76
2022/10/31 05:13:29;;;;;;;43.88;26.20;;;;;;;;;;5076360;28;20486;-77
2022/10/31 05:15:55;;;;;;;44.33;26.65;;;;;;;;;;5058969;28;20509;-76
2022/10/31 05:18:21;;;;;;;49.38;26.95;;;;;;;;;;5060146;28;20406;-76
2022/10/31 05:20:47;;;;;;;42.70;24.92;;;;;;;;;;5074621;28;20424;-76
2022/10/31 05:23:13;;;;;;;45.97;25.65;;;;;;;;;;5042271;28;20421;-77
2022/10/31 05:25:40;;;;;;;50.83;29.88;;;;;;;;;;5074003;28;20430;-76
2022/10/31 05:28:06;;;;;;;50.38;30.27;;;;;;;;;;5076431;28;20418;-76
2022/10/31 05:30:32;;;;;;;56.78;31.00;;;;;;;;;;5075814;28;20441;-77
2022/10/31 05:32:59;;;;;;;51.60;30.35;;;;;;;;;;5075655;28;20530;-77
2022/10/31 05:35:28;;;;;;;51.60;30.75;;;10.30;99.90;;;;;;5074529;28;20975;-77
2022/10/31 05:37:54;;;;;;;50.13;29.40;;;;;;;;;;5075426;28;20425;-77
2022/10/31 05:40:21;;;;;;;48.05;29.17;;;;;;;;;;5058689;28;20418;-77
2022/10/31 05:42:48;;;;;;;47.45;29.90;;;;;;;;;;5076238;28;20440;-76
2022/10/31 05:45:15;;;;;;;49.03;30.60;;;;;;;;;;5064251;28;20421;-77
2022/10/31 05:47:41;;;;;;;54.53;31.10;;;;;;;;;;5088769;28;20430;-76
2022/10/31 05:50:07;;;;;;;43.28;28.63;;;;;;;;;;5077917;28;20414;-77
2022/10/31 05:52:34;;;;;;;45.88;28.30;;;;;;;;;;5075478;28;20463;-76
2022/10/31 05:55:00;;;;;;;49.13;30.35;;;;;;;;;;5073500;28;20555;-77
2022/10/31 05:57:26;;;;;;;47.95;30.10;;;;;;;;;;5077172;28;20501;-77
2022/10/31 05:59:52;;;;;;;50.27;29.90;;;;;;;;;;5076056;28;20398;-77
2022/10/31 06:02:22;;;;;;;51.00;29.60;;;;;;;;;;5073328;28;20556;-77
2022/10/31 06:04:48;;;;;;;48.05;29.60;;;;;;;;;;5075285;28;20422;-77
2022/10/31 06:07:14;;;;;;;49.30;30.50;;;;;;;;;;5072979;28;20422;-77
2022/10/31 06:09:40;;;;;;;43.30;28.40;;;;;;;;;;5058636;28;20414;-77
2022/10/31 06:12:06;;;;;;;54.42;31.30;;;;;;;;;;5074439;28;20516;-78
2022/10/31 06:14:32;;;;;;;56.60;31.40;;;;;;;;;;5074754;28;20540;-77
2022/10/31 06:16:58;;;;;;;52.83;30.88;;;;;;;;;;5056575;28;20425;-76
2022/10/31 06:19:24;;;;;;;50.85;30.23;;;;;;;;;;5059392;28;20906;-77
2022/10/31 06:21:53;;;;;;;63.13;34.38;;;;;;;;;;5051814;28;20414;-77
2022/10/31 06:24:19;;;;;;;61.72;34.10;;;;;;;;;;5058095;28;20765;-76
2022/10/31 06:26:45;;;;;;;59.35;34.22;;;;;;;;;;5057484;28;20489;-77
2022/10/31 06:29:11;;;;;;;61.17;34.35;;;;;;;;;;5075538;28;20406;-76
2022/10/31 06:31:37;;;;;;;58.55;33.90;;;;;;;;;;5066581;28;20420;-76
2022/10/31 06:34:03;;;;;;;57.78;33.40;;;;;;;;;;5073981;28;20440;-77
2022/10/31 06:36:29;;;;;;;59.63;34.30;;;;;;;;;;5073355;28;20913;-78
2022/10/31 06:38:55;;;;;;;57.97;32.97;;;;;;;;;;5073660;28;20489;-77
2022/10/31 06:41:21;;;;;;;54.88;32.80;;;;;;;;;;5058000;28;20425;-76
2022/10/31 06:43:47;;;;;;;62.08;32.70;;;;;;;;;;5040663;28;20430;-78
2022/10/31 06:46:13;;;;;;;57.93;31.73;;;;;;;;;;5073864;28;20433;-77
2022/10/31 06:48:41;;;;;;;59.95;34.25;;;;;;;;;;5057154;28;20425;-77
2022/10/31 06:51:07;;;;;;;65.88;35.35;;;;;;;;;;5074341;28;20425;-78
2022/10/31 06:53:33;;;;;;;59.30;34.28;;;;;;;;;;5058607;28;20393;-78
2022/10/31 06:56:00;;;;;;;54.42;32.08;;;;;;;;;;5074560;28;20398;-78
2022/10/31 06:58:26;;;;;;;57.13;33.67;;;;;;;;;;5073323;28;20422;-77
2022/10/31 07:00:52;;;;;;;67.13;36.97;;;;;;;;;;5072941;28;20426;-76
2022/10/31 07:03:20;;;;;;;65.05;36.20;;;;;;;;;;5072629;28;20421;-78
2022/10/31 07:05:46;;;;;;;62.63;36.28;;;;;;;;;;5075007;28;20405;-78
2022/10/31 07:08:13;;;;;;;74.85;40.75;;;10.20;99.90;;;;;;5040057;28;20445;-77
2022/10/31 07:10:41;;;;;;;69.77;39.37;;;9.70;99.90;;;;;;5073180;28;20505;-79
2022/10/31 07:13:11;;;;;;;173.68;43.35;;;9.90;99.90;;;;;;5071864;28;20422;-80
2022/10/31 07:15:39;;;;;;;94.53;39.43;;;10.00;99.90;;;;;;5074238;28;20418;-80
2022/10/31 07:18:06;;;;;;;65.97;37.67;;;;;;;;;;5069134;28;20473;-79
2022/10/31 07:20:33;;;;;;;56.63;34.03;;;;;;;;;;5072987;28;20422;-78
2022/10/31 07:23:00;;;;;;;63.67;34.47;;;;;;;;;;5038436;28;20425;-78
2022/10/31 07:25:26;;;;;;;50.03;32.63;;;;;;;;;;5056660;28;20428;-77
2022/10/31 07:27:52;;;;;;;55.00;33.42;;;;;;;;;;5071524;28;20425;-76
2022/10/31 07:30:18;;;;;;;48.40;32.97;;;;;;;;;;5055870;28;20754;-77
2022/10/31 07:32:49;;;;;;;54.45;37.33;;;10.20;99.90;;;;;;5056111;28;20424;-77
2022/10/31 07:35:23;;;;;;;68.10;45.60;;;10.40;99.90;;;;;;5073805;28;20509;-77
2022/10/31 07:37:49;;;;;;;47.10;32.10;;;;;;;;;;5070292;28;20439;-77
2022/10/31 07:40:16;;;;;;;52.53;37.50;;;;;;;;;;5056666;28;20418;-78
2022/10/31 07:42:43;;;;;;;49.30;30.23;;;;;;;;;;5066535;28;20428;-78
2022/10/31 07:45:11;;;;;;;38.97;28.38;;;10.80;99.90;;;;;;5039734;28;20402;-78
2022/10/31 07:47:49;;;;;;;37.63;26.67;;;11.00;99.90;;;;;;5056036;28;20413;-77
2022/10/31 07:50:20;;;;;;;36.88;24.40;;;11.00;99.90;;;;;;5055657;28;20899;-78
2022/10/31 07:52:46;;;;;;;32.55;22.17;;;;;;;;;;5055577;28;20468;-77
2022/10/31 07:55:12;;;;;;;35.30;23.48;;;;;;;;;;5052442;28;20927;-77
2022/10/31 07:57:39;;;;;;;30.42;22.55;;;;;;;;;;5050869;28;20418;-77
2022/10/31 08:00:05;;;;;;;29.33;21.23;;;;;;;;;;5056176;28;20454;-77
2022/10/31 08:02:32;;;;;;;34.55;21.85;;;;;;;;;;5071951;28;20426;-78
2022/10/31 08:04:59;;;;;;;29.77;20.83;;;;;;;;;;5073982;28;20425;-77
2022/10/31 08:07:26;;;;;;;28.80;21.02;;;;;;;;;;5055527;28;20421;-77
2022/10/31 08:09:52;;;;;;;32.50;23.20;;;;;;;;;;5071972;28;20422;-78
2022/10/31 08:12:19;;;;;;;32.03;23.00;;;;;;;;;;5054736;28;20960;-78
2022/10/31 08:14:45;;;;;;;29.17;20.55;;;;;;;;;;5072729;28;20417;-78
2022/10/31 08:17:11;;;;;;;27.07;20.13;;;;;;;;;;5072775;28;20425;-77
2022/10/31 08:19:37;;;;;;;26.20;19.70;;;;;;;;;;5071810;28;20418;-78
2022/10/31 08:22:03;;;;;;;29.52;19.65;;;;;;;;;;5071550;28;20421;-76
2022/10/31 08:24:29;;;;;;;28.88;20.85;;;;;;;;;;5060289;28;20457;-77
2022/10/31 08:26:55;;;;;;;29.50;20.80;;;;;;;;;;5071270;28;20430;-78
2022/10/31 08:29:22;;;;;;;30.63;20.48;;;;;;;;;;5055716;28;20911;-76
2022/10/31 08:31:48;;;;;;;25.92;20.60;;;;;;;;;;5057110;28;20394;-76
2022/10/31 08:34:14;;;;;;;28.90;21.00;;;;;;;;;;5056266;28;20449;-76
2022/10/31 08:36:40;;;;;;;29.40;20.33;;;;;;;;;;5071438;28;20421;-77
2022/10/31 08:39:06;;;;;;;28.08;20.30;;;;;;;;;;5070876;28;20897;-78
2022/10/31 08:41:32;;;;;;;29.02;20.52;;;;;;;;;;5072779;28;20414;-79
2022/10/31 08:43:58;;;;;;;24.05;19.02;;;;;;;;;;5054412;28;20425;-78
2022/10/31 08:46:24;;;;;;;25.33;19.27;;;;;;;;;;5071822;28;20418;-79
2022/10/31 08:48:50;;;;;;;24.43;18.50;;;;;;;;;;5057368;28;20418;-78
2022/10/31 08:51:17;;;;;;;23.33;18.73;;;;;;;;;;5055314;28;20445;-78
2022/10/31 08:53:43;;;;;;;27.00;19.40;;;;;;;;;;5073357;28;20500;-78
2022/10/31 08:56:09;;;;;;;24.73;18.90;;;;;;;;;;5070614;28;20914;-78
2022/10/31 08:58:35;;;;;;;24.88;18.73;;;;;;;;;;5055406;28;20429;-78
2022/10/31 09:01:01;;;;;;;26.20;20.02;;;;;;;;;;5072943;28;20434;-77
2022/10/31 09:03:29;;;;;;;27.30;20.40;;;;;;;;;;5069891;28;20422;-79
2022/10/31 09:05:59;;;;;;;25.00;19.60;;;12.40;99.90;;;;;;5068729;28;20422;-77
2022/10/31 09:08:25;;;;;;;27.33;21.08;;;;;;;;;;5065159;28;20451;-78
2022/10/31 09:10:52;;;;;;;27.38;19.55;;;;;;;;;;5069142;28;20428;-80
2022/10/31 09:13:20;;;;;;;25.00;19.23;;;12.70;99.90;;;;;;5055472;28;20453;-79
2022/10/31 09:15:47;;;;;;;24.40;18.83;;;;;;;;;;5073074;28;20394;-78
2022/10/31 09:18:14;;;;;;;23.85;18.95;;;;;;;;;;5071824;28;20420;-77
2022/10/31 09:20:41;;;;;;;24.70;18.20;;;13.10;99.90;;;;;;5059998;28;20449;-79
2022/10/31 09:23:14;;;;;;;23.90;17.10;;;13.10;99.90;;;;;;5073457;28;20405;-77
2022/10/31 09:25:40;;;;;;;23.40;17.40;;;;;;;;;;5087501;28;20450;-77
2022/10/31 09:28:07;;;;;;;22.38;17.40;;;;;;;;;;5051839;28;20419;-77
2022/10/31 09:30:34;;;;;;;22.58;18.02;;;;;;;;;;5053153;28;20457;-76
2022/10/31 09:33:02;;;;;;;23.73;17.90;;;;;;;;;;5036194;28;20399;-77
2022/10/31 09:35:31;;;;;;;24.30;17.92;;;;;;;;;;5036952;28;20483;-77
2022/10/31 09:37:58;;;;;;;23.33;17.57;;;13.40;99.90;;;;;;5051620;28;20418;-78
2022/10/31 09:40:26;;;;;;;22.00;17.52;;;;;;;;;;5057046;28;20490;-76
2022/10/31 09:42:58;;;;;;;24.20;17.77;;;;;;;;;;5073393;28;20461;-78
2022/10/31 09:45:33;;;;;;;21.52;17.67;;;13.50;99.90;;;;;;5071887;28;20505;-78
2022/10/31 09:48:14;;;;;;;23.25;16.48;;;;;;;;;;5072711;28;20513;-78
2022/10/31 09:50:47;;;;;;;22.02;16.20;;;;;;;;;;5063803;28;20877;-78
2022/10/31 09:53:35;;;;;;;19.95;15.95;;;14.10;99.90;;;;;;5067356;28;20495;-78
2022/10/31 09:56:04;;;;;;;23.17;17.88;;;13.90;99.90;;;;;;5050687;28;20563;-78
2022/10/31 09:58:31;;;;;;;24.20;16.80;;;;;;;;;;5078725;28;20436;-78
2022/10/31 10:01:00;;;;;;;20.98;16.25;;;14.50;99.90;;;;;;5054911;28;20508;-77
2022/10/31 10:03:35;;;;;;;21.52;16.02;;;14.20;99.90;;;;;;5075839;28;20428;-77
2022/10/31 10:06:09;;;;;;;19.75;15.50;;;14.60;99.90;;;;;;5055605;28;20908;-77
2022/10/31 10:08:36;;;;;;;18.15;14.30;;;;;;;;;;5071986;28;20433;-77
2022/10/31 10:11:35;;;;;;;20.55;15.15;;;14.30;99.90;;;;;;5057950;28;20433;-77
2022/10/31 10:14:07;;;;;;;19.92;14.77;;;;;;;;;;5054675;28;20425;-76
2022/10/31 10:17:07;;;;;;;19.15;14.57;;;14.70;99.90;;;;;;5072267;28;20414;-76
2022/10/31 10:19:40;;;;;;;18.95;14.43;;;;;;;;;;5057876;28;20456;-77
2022/10/31 10:22:26;;;;;;;24.63;14.50;;;14.50;99.90;;;;;;5074256;28;20550;-76
2022/10/31 10:25:10;;;;;;;20.03;14.80;;;14.70;99.90;;;;;;5068888;28;20429;-76
2022/10/31 10:27:45;;;;;;;21.33;14.18;;;14.90;99.90;;;;;;5066825;28;20426;-75
2022/10/31 10:30:41;;;;;;;19.95;14.35;;;14.60;99.90;;;;;;5065151;28;20421;-76
2022/10/31 10:33:15;;;;;;;19.13;15.13;;;14.60;99.90;;;;;;5071949;28;20425;-75
2022/10/31 10:35:56;;;;;;;20.88;14.32;;;;;;;;;;5053441;28;20451;-75
2022/10/31 10:38:35;;;;;;;19.58;15.15;;;;;;;;;;5053632;28;20450;-76
2022/10/31 10:41:05;;;;;;;21.42;15.27;;;14.60;99.90;;;;;;5071003;28;20474;-75
2022/10/31 10:43:35;;;;;;;21.77;15.90;;;14.60;99.90;;;;;;5072028;28;20463;-76
2022/10/31 10:49:44;;;;;;;22.55;15.40;;;15.00;99.90;;;;;;5066835;28;20498;-75
2022/10/31 10:52:10;;;;;;;20.20;14.32;;;;;;;;;;5059436;28;20410;-76
2022/10/31 10:54:46;;;;;;;22.88;15.25;;;;;;;;;;5073078;28;20455;-76
2022/10/31 10:57:49;;;;;;;18.60;14.25;;;14.60;99.90;;;;;;5057559;28;20465;-76
2022/10/31 11:00:19;;;;;;;20.30;14.32;;;;;;;;;;5054631;28;20493;-76
2022/10/31 11:02:45;;;;;;;21.75;15.25;;;14.30;99.90;;;;;;5071802;28;20422;-75
2022/10/31 11:05:35;;;;;;;19.98;13.88;;;14.90;99.90;;;;;;5036387;28;20419;-76
2022/10/31 11:08:01;;;;;;;21.25;15.90;;;;;;;;;;5064780;28;20426;-76
2022/10/31 11:10:27;;;;;;;21.48;14.93;;;;;;;;;;5073941;28;20422;-76
2022/10/31 11:13:05;;;;;;;19.50;14.18;;;15.00;99.90;;;;;;5071492;28;20417;-75
2022/10/31 11:15:33;;;;;;;21.27;13.60;;;;;;;;;;5058400;28;20414;-77
2022/10/31 11:17:59;;;;;;;21.00;13.57;;;;;;;;;;5074818;28;20397;-76
2022/10/31 11:20:30;;;;;;;20.60;13.30;;;;;;;;;;5073975;28;20531;-75
2022/10/31 11:23:18;;;;;;;19.67;13.80;;;15.00;99.90;;;;;;5069278;28;20433;-77
2022/10/31 11:25:49;;;;;;;20.88;14.32;;;;;;;;;;5067126;28;20436;-76
2022/10/31 11:28:15;;;;;;;18.95;13.55;;;;;;;;;;5053805;28;20423;-76
2022/10/31 11:30:47;;;;;;;20.90;14.47;;;14.90;99.90;;;;;;5074269;28;20447;-76
2022/10/31 11:33:47;;;;;;;20.88;13.70;;;15.10;99.90;;;;;;5075283;28;20419;-75
2022/10/31 11:36:24;;;;;;;18.38;13.00;;;15.00;99.90;;;;;;5089914;28;20422;-75
2022/10/31 11:38:50;;;;;;;17.42;13.02;;;15.00;99.90;;;;;;5067991;28;20479;-75
2022/10/31 11:41:26;;;;;;;21.37;13.47;;;15.20;99.90;;;;;;5072312;28;20429;-75
2022/10/31 11:43:57;;;;;;;19.67;13.68;;;;;;;;;;5056210;28;20856;-74
2022/10/31 11:46:26;;;;;;;19.92;14.70;;;;;;;;;;5073951;28;20414;-76
2022/10/31 11:48:54;;;;;;;19.75;14.52;;;15.30;99.90;;;;;;5071560;28;20505;-75
2022/10/31 11:51:32;;;;;;;17.90;13.73;;;15.40;99.90;;;;;;5039250;28;20414;-75
2022/10/31 11:53:59;;;;;;;15.73;11.43;;;;;;;;;;5072614;28;20419;-75
2022/10/31 11:56:25;;;;;;;16.17;10.98;;;15.20;99.90;;;;;;5081509;28;20443;-75
2022/10/31 11:58:56;;;;;;;17.35;10.60;;;15.50;99.90;;;;;;5068888;28;20531;-75
2022/10/31 12:01:25;;;;;;;15.35;10.68;;;;;;;;;;5054926;28;20420;-75
2022/10/31 12:04:04;;;;;;;14.00;10.00;;;15.30;99.90;;;;;;5066571;28;20431;-76
2022/10/31 12:06:33;;;;;;;16.10;11.20;;;;;;;;;;5055501;28;20735;-74
2022/10/31 12:09:00;;;;;;;15.48;10.77;;;;;;;;;;5078847;28;20460;-76
2022/10/31 12:11:29;;;;;;;13.85;10.63;;;;;;;;;;5072482;28;20429;-76
2022/10/31 12:13:58;;;;;;;16.75;10.68;;;;;;;;;;5074114;28;20417;-75
2022/10/31 12:16:30;;;;;;;15.82;10.77;;;;;;;;;;5052892;28;20418;-76
2022/10/31 12:19:05;;;;;;;13.10;9.93;;;15.50;99.90;;;;;;5064668;28;20512;-75
2022/10/31 12:21:50;;;;;;;13.82;10.05;;;15.30;99.90;;;;;;5066065;28;20432;-76
2022/10/31 12:24:26;;;;;;;14.63;9.95;;;;;;;;;;5042996;28;20434;-76
2022/10/31 12:27:03;;;;;;;13.70;9.52;;;15.30;99.90;;;;;;5067151;28;20418;-75
2022/10/31 12:29:29;;;;;;;14.52;9.52;;;;;;;;;;5053579;28;20418;-75
2022/10/31 12:31:56;;;;;;;15.63;9.85;;;;;;;;;;5065475;28;20507;-75
2022/10/31 12:34:45;;;;;;;15.38;8.95;;;15.40;99.90;;;;;;5054378;28;20450;-75
2022/10/31 12:37:23;;;;;;;16.42;8.80;;;;;;;;;;5051601;28;20417;-76
2022/10/31 12:39:55;;;;;;;11.10;8.15;;;;;;;;;;5064817;28;20868;-76
2022/10/31 12:42:36;;;;;;;12.97;7.63;;;;;;;;;;5050732;28;20481;-76
2022/10/31 12:45:11;;;;;;;11.50;7.10;;;15.70;99.90;;;;;;5068796;28;20405;-76
2022/10/31 12:47:56;;;;;;;12.65;7.47;;;;;;;;;;5068159;28;20761;-76
2022/10/31 12:50:34;;;;;;;13.38;7.43;;;15.80;99.90;;;;;;5050893;28;20845;-76
2022/10/31 12:53:03;;;;;;;11.90;6.95;;;;;;;;;;5064213;28;20476;-76
2022/10/31 12:55:38;;;;;;;10.57;6.00;;;15.70;99.90;;;;;;5051742;28;20414;-76
2022/10/31 12:58:09;;;;;;;12.52;6.07;;;;;;;;;;5050398;28;20421;-76
2022/10/31 13:00:38;;;;;;;10.52;5.15;;;;;;;;;;5067087;28;20443;-76
2022/10/31 13:03:20;;;;;;;9.70;4.85;;;15.90;99.90;;;;;;5046514;28;20913;-76
2022/10/31 13:05:54;;;;;;;8.05;4.22;;;16.00;99.90;;;;;;5068623;28;20445;-76
2022/10/31 13:08:29;;;;;;;7.73;3.70;;;16.00;99.90;;;;;;5066605;28;20577;-75
2022/10/31 13:11:01;;;;;;;8.37;4.00;;;;;;;;;;5071610;28;20406;-76
2022/10/31 13:13:37;;;;;;;8.13;3.88;;;16.00;99.90;;;;;;5071288;28;20449;-75
2022/10/31 13:16:09;;;;;;;9.10;3.72;;;;;;;;;;5073363;28;20406;-76
2022/10/31 13:19:02;;;;;;;9.68;4.25;;;;;;;;;;5059091;28;20905;-76
2022/10/31 13:21:31;;;;;;;7.43;3.33;;;;;;;;;;5042207;28;20501;-76
2022/10/31 13:24:04;;;;;;;11.20;3.88;;;16.20;99.90;;;;;;5073696;28;20475;-75
2022/10/31 13:26:38;;;;;;;11.05;4.30;;;;;;;;;;5071556;28;20445;-75
2022/10/31 13:29:14;;;;;;;9.95;3.42;;;;;;;;;;5075644;28;20545;-75
2022/10/31 13:31:41;;;;;;;8.30;3.25;;;16.20;99.90;;;;;;5071322;28;20770;-75
2022/10/31 13:34:22;;;;;;;9.27;3.33;;;16.20;99.90;;;;;;5062015;28;20414;-76
2022/10/31 13:37:01;;;;;;;8.47;3.03;;;16.20;99.90;;;;;;5070797;28;20468;-75
2022/10/31 13:39:27;;;;;;;11.77;3.33;;;;;;;;;;5058408;28;20422;-76
2022/10/31 13:42:03;;;;;;;10.15;3.50;;;16.10;99.90;;;;;;5057704;28;20477;-76
2022/10/31 13:44:30;;;;;;;10.32;4.03;;;;;;;;;;5058121;28;20405;-76
2022/10/31 13:46:58;;;;;;;11.20;3.60;;;16.20;99.90;;;;;;5053807;28;20991;-76
2022/10/31 13:49:31;;;;;;;7.97;3.23;;;;;;;;;;5075107;28;20429;-75
2022/10/31 13:52:26;;;;;;;9.05;3.65;;;17.30;99.90;;;;;;5071546;28;20478;-76
2022/10/31 13:54:56;;;;;;;12.23;3.47;;;16.20;99.90;;;;;;5060509;28;20418;-75
2022/10/31 13:57:26;;;;;;;10.63;3.87;;;;;;;;;;5074050;28;20937;-75
2022/10/31 14:00:00;;;;;;;10.40;3.58;;;16.10;99.90;;;;;;5075375;28;20417;-76
2022/10/31 14:02:34;;;;;;;10.70;3.80;;;15.80;99.90;;;;;;5076238;28;20402;-75